Time;durP1;ratioP1;P1;durP2;ratioP2;P2;SDS_P1;SDS_P2;PMS_P1;PMS_P2;Temp;Humidity;BMP_temperature;BMP_pressure;BME280_temperature;BME280_humidity;BME280_pressure;Samples;Min_cycle;Max_cycle;Signal;HPM_P1;HPM_P2
2024/02/13 00:01:42;;;;;;;14.32;7.32;;;;;;;7.89;100.00;92075.66;5071965;28;20056;-74
2024/02/13 00:04:11;;;;;;;12.02;7.10;;;;;;;7.84;100.00;92073.75;5073682;28;20131;-73
2024/02/13 00:06:38;;;;;;;13.05;8.50;;;;;;;7.84;100.00;92081.44;5074244;28;20044;-73
2024/02/13 00:09:05;;;;;;;19.83;11.80;;;;;;;7.85;100.00;92077.88;5072035;28;20040;-74
2024/02/13 00:11:32;;;;;;;16.77;9.90;;;;;;;7.86;100.00;92081.97;5072726;28;20431;-73
2024/02/13 00:13:59;;;;;;;13.95;8.50;;;;;;;7.88;100.00;92076.66;5074555;28;20433;-74
2024/02/13 00:16:26;;;;;;;13.38;7.25;;;;;;;7.89;100.00;92085.88;5078721;28;20539;-74
2024/02/13 00:18:54;;;;;;;15.63;8.30;;;;;;;7.88;100.00;92087.66;5076242;28;20482;-74
2024/02/13 00:21:22;;;;;;;21.08;12.32;;;;;;;7.92;100.00;92089.78;5071772;28;20089;-74
2024/02/13 00:23:49;;;;;;;23.60;12.70;;;;;;;7.91;100.00;92095.88;5077323;28;20080;-73
2024/02/13 00:26:17;;;;;;;24.63;11.98;;;;;;;7.92;100.00;92084.66;5070633;28;20044;-74
2024/02/13 00:28:45;;;;;;;22.13;12.10;;;;;;;7.97;100.00;92090.66;5072820;28;20036;-74
2024/02/13 00:31:12;;;;;;;22.30;11.52;;;;;;;7.98;100.00;92094.00;5072070;28;20045;-73
2024/02/13 00:33:38;;;;;;;21.55;11.68;;;;;;;7.95;100.00;92095.22;5070395;28;20051;-74
2024/02/13 00:36:07;;;;;;;19.63;10.98;;;;;;;7.95;100.00;92095.22;5072497;28;20044;-74
2024/02/13 00:38:35;;;;;;;17.88;11.05;;;;;;;7.99;100.00;92100.66;5071793;28;20044;-74
2024/02/13 00:41:04;;;;;;;19.38;10.35;;;;;;;7.96;100.00;92086.53;5075218;28;20056;-75
2024/02/13 00:43:31;;;;;;;19.52;9.98;;;;;;;8.00;100.00;92094.56;5073699;28;20492;-74
2024/02/13 00:45:58;;;;;;;12.00;8.15;;;;;;;7.85;100.00;92077.09;5069978;28;20571;-73
2024/02/13 00:48:26;;;;;;;14.13;8.77;;;;;;;8.01;100.00;92103.81;5074403;28;20048;-73
2024/02/13 00:50:53;;;;;;;18.10;10.32;;;;;;;8.02;100.00;92098.44;5081860;28;20080;-74
2024/02/13 00:53:20;;;;;;;16.95;10.52;;;;;;;8.02;100.00;92098.44;5077016;28;20051;-74
2024/02/13 00:55:49;;;;;;;42.17;20.83;;;;;;;8.01;100.00;92099.44;5073793;28;20055;-73
2024/02/13 00:58:17;;;;;;;37.72;17.65;;;;;;;7.87;100.00;92075.09;5080510;28;20056;-74
2024/02/13 01:00:45;;;;;;;89.15;39.85;;;;;;;8.05;100.00;92102.34;5071564;28;20055;-73
2024/02/13 01:03:11;;;;;;;100.80;42.33;;;;;;;8.04;100.00;92100.03;5077607;28;20052;-73
2024/02/13 01:05:40;;;;;;;122.90;48.75;;;;;;;7.96;100.00;92085.78;5076509;28;20040;-74
2024/02/13 01:08:08;;;;;;;65.97;30.52;;;;;;;8.07;100.00;92105.47;5078221;28;20056;-74
2024/02/13 01:10:35;;;;;;;39.58;20.45;;;;;;;8.10;100.00;92099.91;5074235;28;20048;-74
2024/02/13 01:13:04;;;;;;;26.25;13.77;;;;;;;8.04;100.00;92084.69;5076959;28;20056;-73
2024/02/13 01:15:32;;;;;;;25.85;14.48;;;;;;;8.07;100.00;92097.81;5070076;28;20455;-73
2024/02/13 01:17:59;;;;;;;27.77;15.27;;;;;;;8.11;100.00;92098.13;5069341;28;20118;-73
2024/02/13 01:20:26;;;;;;;28.08;14.80;;;;;;;8.11;100.00;92095.56;5068947;28;20413;-73
2024/02/13 01:22:53;;;;;;;27.73;15.50;;;;;;;8.14;100.00;92093.34;5078891;28;20054;-74
2024/02/13 01:25:20;;;;;;;22.50;13.98;;;;;;;8.14;100.00;92095.13;5081179;28;20059;-74
2024/02/13 01:27:47;;;;;;;22.90;13.60;;;;;;;8.07;100.00;92097.81;5077543;28;20040;-73
2024/02/13 01:30:16;;;;;;;23.13;14.60;;;;;;;8.08;100.00;92101.13;5073287;28;20048;-73
2024/02/13 01:32:43;;;;;;;27.88;15.75;;;;;;;8.09;100.00;92100.13;5073405;28;20053;-73
2024/02/13 01:35:13;;;;;;;25.85;14.80;;;;;;;8.10;100.00;92094.03;5070870;28;20122;-73
2024/02/13 01:37:40;;;;;;;28.80;16.10;;;;;;;8.11;100.00;92098.88;5071084;28;20045;-73
2024/02/13 01:40:08;;;;;;;30.48;16.63;;;;;;;8.06;100.00;92096.22;5083091;28;20048;-73
2024/02/13 01:42:37;;;;;;;25.27;15.43;;;;;;;8.12;100.00;92103.03;5070788;28;20049;-73
2024/02/13 01:45:06;;;;;;;23.27;15.85;;;;;;;8.11;100.00;92096.34;5075905;28;20051;-73
2024/02/13 01:47:35;;;;;;;31.65;18.98;;;;;;;8.15;100.00;92100.00;5071594;28;20493;-73
2024/02/13 01:50:05;;;;;;;27.55;18.40;;;;;;;8.15;100.00;92109.47;5071219;28;20058;-73
2024/02/13 01:52:32;;;;;;;24.65;16.70;;;;;;;8.13;100.00;92112.25;5071835;28;20105;-73
2024/02/13 01:55:01;;;;;;;25.50;16.02;;;;;;;8.16;100.00;92118.72;5072194;28;20049;-73
2024/02/13 01:57:29;;;;;;;25.25;16.00;;;;;;;8.18;100.00;92121.06;5070730;28;20928;-73
2024/02/13 01:59:56;;;;;;;21.30;15.13;;;;;;;8.16;100.00;92118.72;5073830;28;20048;-73
2024/02/13 02:02:24;;;;;;;18.67;12.15;;;;;;;8.21;100.00;92123.16;5072281;28;20040;-74
2024/02/13 02:04:54;;;;;;;21.75;12.98;;;;;;;8.21;100.00;92123.94;5082680;28;20088;-74
2024/02/13 02:07:23;;;;;;;19.17;12.80;;;;;;;8.18;100.00;92129.50;5070144;28;20044;-73
2024/02/13 02:09:51;;;;;;;26.77;16.05;;;;;;;8.13;100.00;92131.94;5074697;28;20102;-73
2024/02/13 02:12:17;;;;;;;27.73;16.45;;;;;;;8.13;100.00;92127.59;5068972;28;20048;-73
2024/02/13 02:14:44;;;;;;;33.58;17.60;;;;;;;7.94;100.00;92132.03;5072557;28;20062;-73
2024/02/13 02:17:12;;;;;;;30.17;17.10;;;;;;;7.82;100.00;92103.88;5081010;28;20424;-73
2024/02/13 02:19:39;;;;;;;28.25;16.83;;;;;;;8.05;100.00;92127.16;5074704;28;20501;-72
2024/02/13 02:22:07;;;;;;;30.02;16.58;;;;;;;8.06;100.00;92126.16;5070210;28;20045;-72
2024/02/13 02:24:34;;;;;;;28.50;16.83;;;;;;;8.08;100.00;92129.25;5071560;28;20136;-72
2024/02/13 02:27:03;;;;;;;29.15;16.75;;;;;;;8.08;100.00;92126.69;5072401;28;20048;-73
2024/02/13 02:29:30;;;;;;;25.63;15.18;;;;;;;8.12;100.00;92133.72;5071110;28;20040;-74
2024/02/13 02:31:57;;;;;;;31.75;19.15;;;;;;;8.20;100.00;92136.94;5071751;28;20052;-74
2024/02/13 02:34:24;;;;;;;33.53;17.25;;;;;;;8.19;100.00;92133.59;5070039;28;20051;-73
2024/02/13 02:36:52;;;;;;;32.35;17.42;;;;;;;8.22;100.00;92142.63;5070080;28;20127;-74
2024/02/13 02:39:22;;;;;;;28.27;15.75;;;;;;;8.10;100.00;92134.94;5069168;28;20145;-74
2024/02/13 02:41:49;;;;;;;27.58;16.60;;;;;;;8.20;100.00;92152.28;5067562;28;20041;-74
2024/02/13 02:44:18;;;;;;;20.90;13.60;;;;;;;8.16;100.00;92144.28;5071232;28;20051;-75
2024/02/13 02:46:47;;;;;;;22.55;13.00;;;;;;;8.14;100.00;92154.72;5077425;28;20044;-75
2024/02/13 02:49:17;;;;;;;22.08;13.77;;;;;;;8.20;100.00;92154.84;5073309;28;20048;-75
2024/02/13 02:51:44;;;;;;;27.08;15.27;;;;;;;8.25;100.00;92157.53;5076696;28;20464;-75
2024/02/13 02:54:11;;;;;;;22.48;14.75;;;;;;;8.27;100.00;92164.00;5085922;28;20052;-75
2024/02/13 02:56:39;;;;;;;24.90;15.32;;;;;;;8.27;100.00;92155.53;5081627;28;20989;-75
2024/02/13 02:59:05;;;;;;;20.38;14.00;;;;;;;8.26;100.00;92159.88;5078067;28;20044;-75
2024/02/13 03:01:36;;;;;;;22.38;12.75;;;;;;;8.33;100.00;92174.34;5075774;28;20044;-74
2024/02/13 03:04:04;;;;;;;20.13;12.52;;;;;;;8.34;100.00;92171.53;5076545;28;20055;-74
2024/02/13 03:06:31;;;;;;;20.50;12.82;;;;;;;8.32;100.00;92176.09;5076291;28;20045;-74
2024/02/13 03:08:58;;;;;;;19.85;12.77;;;;;;;8.25;100.00;92163.41;5073656;28;20118;-74
2024/02/13 03:11:25;;;;;;;17.73;12.40;;;;;;;8.28;100.00;92172.44;5077609;28;20060;-74
2024/02/13 03:13:52;;;;;;;17.70;10.70;;;;;;;8.31;100.00;92172.00;5076066;28;20052;-74
2024/02/13 03:16:19;;;;;;;19.77;12.48;;;;;;;8.31;100.00;92178.88;5070998;28;20151;-74
2024/02/13 03:18:47;;;;;;;23.05;13.75;;;;;;;8.16;100.00;92160.41;5077977;28;20162;-74
2024/02/13 03:21:14;;;;;;;23.50;12.73;;;;;;;8.27;100.00;92181.91;5072540;28;20045;-73
2024/02/13 03:23:43;;;;;;;21.80;12.60;;;;;;;8.28;100.00;92180.88;5076989;28;20475;-73
2024/02/13 03:26:10;;;;;;;19.10;12.80;;;;;;;8.27;100.00;92181.91;5083059;28;20042;-73
2024/02/13 03:28:37;;;;;;;20.27;12.77;;;;;;;8.25;100.00;92185.69;5072630;28;20059;-73
2024/02/13 03:31:04;;;;;;;20.13;13.43;;;;;;;8.22;100.00;92191.22;5079772;28;20045;-73
2024/02/13 03:33:31;;;;;;;16.45;11.00;;;;;;;8.18;100.00;92185.75;5074465;28;20047;-73
2024/02/13 03:36:00;;;;;;;14.10;9.15;;;;;;;7.76;100.00;92194.22;5071824;28;20051;-74
2024/02/13 03:38:28;;;;;;;11.98;7.72;;;;;;;7.83;100.00;92187.22;5076687;28;20047;-73
2024/02/13 03:40:56;;;;;;;12.48;7.78;;;;;;;7.80;100.00;92187.69;5082204;28;20075;-74
2024/02/13 03:43:22;;;;;;;10.57;7.45;;;;;;;7.80;100.00;92197.13;5070038;28;20044;-74
2024/02/13 03:45:49;;;;;;;9.68;6.82;;;;;;;7.57;100.00;92201.16;5084692;28;20071;-74
2024/02/13 03:48:17;;;;;;;9.70;6.15;;;;;;;7.52;100.00;92190.78;5080949;28;20044;-74
2024/02/13 03:50:44;;;;;;;7.28;5.25;;;;;;;7.32;100.00;92202.03;5071111;28;20048;-74
2024/02/13 03:53:13;;;;;;;8.25;5.43;;;;;;;7.23;100.00;92199.00;5079809;28;20068;-75
2024/02/13 03:55:40;;;;;;;7.20;4.50;;;;;;;7.30;100.00;92209.91;5076530;28;20049;-74
2024/02/13 03:58:08;;;;;;;5.53;4.00;;;;;;;7.20;100.00;92191.75;5072631;28;20076;-74
2024/02/13 04:00:34;;;;;;;5.97;4.00;;;;;;;7.20;100.00;92207.88;5079273;28;20052;-74
2024/02/13 04:03:12;;;;;;;7.53;4.63;;;;;;;7.37;100.00;92217.50;5073140;28;20059;-74
2024/02/13 04:05:40;;;;;;;8.35;6.72;;;;;;;7.27;100.00;92220.53;5075532;28;20048;-73
2024/02/13 04:08:07;;;;;;;6.15;4.38;;;;;;;7.29;100.00;92215.22;5074326;28;20046;-74
2024/02/13 04:10:36;;;;;;;5.18;4.32;;;;;;;7.26;100.00;92216.44;5072610;28;20086;-74
2024/02/13 04:13:06;;;;;;;4.50;2.95;;;;;;;6.76;100.00;92212.22;5074393;28;20680;-74
2024/02/13 04:15:33;;;;;;;4.35;3.15;;;;;;;6.51;100.00;92201.06;5077581;28;20045;-74
2024/02/13 04:17:59;;;;;;;3.92;2.95;;;;;;;6.42;100.00;92222.72;5074802;28;20415;-74
2024/02/13 04:20:26;;;;;;;3.08;2.20;;;;;;;6.17;100.00;92215.03;5073875;28;20052;-73
2024/02/13 04:22:53;;;;;;;3.97;2.97;;;;;;;6.51;100.00;92218.91;5081625;28;20575;-73
2024/02/13 04:25:20;;;;;;;4.13;3.13;;;;;;;6.56;100.00;92223.38;5072345;28;20050;-73
2024/02/13 04:27:49;;;;;;;4.13;3.10;;;;;;;6.30;100.00;92198.88;5080034;28;20431;-73
2024/02/13 04:30:16;;;;;;;3.90;2.97;;;;;;;6.55;100.00;92230.28;5072493;28;20135;-73
2024/02/13 04:32:43;;;;;;;4.28;3.03;;;;;;;6.56;100.00;92225.94;5070542;28;20084;-73
2024/02/13 04:35:10;;;;;;;5.57;3.33;;;;;;;6.71;100.00;92219.75;5076580;28;20078;-74
2024/02/13 04:37:37;;;;;;;77.00;31.67;;;;;;;6.88;100.00;92222.50;5081452;28;20051;-74
2024/02/13 04:40:06;;;;;;;13.00;7.00;;;;;;;7.03;100.00;92227.31;5073114;28;20045;-73
2024/02/13 04:42:33;;;;;;;9.02;6.35;;;;;;;7.02;100.00;92213.75;5077048;28;20079;-73
2024/02/13 04:45:01;;;;;;;8.30;6.10;;;;;;;7.27;100.00;92230.00;5074154;28;20052;-74
2024/02/13 04:47:29;;;;;;;6.45;4.43;;;;;;;7.32;100.00;92225.78;5073748;28;20036;-73
2024/02/13 04:49:57;;;;;;;6.40;4.72;;;;;;;7.26;100.00;92205.44;5080884;28;20126;-73
2024/02/13 04:52:24;;;;;;;5.53;4.55;;;;;;;7.47;100.00;92228.00;5071012;28;20670;-73
2024/02/13 04:54:51;;;;;;;10.23;6.63;;;;;;;7.53;100.00;92235.78;5068179;28;20045;-73
2024/02/13 04:57:18;;;;;;;11.38;7.68;;;;;;;7.52;100.00;92231.69;5075539;28;20874;-73
2024/02/13 04:59:48;;;;;;;23.77;14.73;;;;;;;7.66;100.00;92250.97;5073700;28;20052;-74
2024/02/13 05:02:19;;;;;;;21.75;13.52;;;;;;;7.65;100.00;92236.63;5071512;28;20043;-73
2024/02/13 05:07:30;;;;;;;19.57;12.53;;;;;;;7.71;100.00;92245.22;5072781;28;20140;-73
2024/02/13 05:09:58;;;;;;;17.98;11.82;;;;;;;7.80;100.00;92256.72;5070855;28;20491;-73
2024/02/13 05:12:25;;;;;;;14.88;9.90;;;;;;;7.82;100.00;92254.72;5070090;28;20532;-73
2024/02/13 05:14:52;;;;;;;14.48;8.18;;;;;;;7.83;100.00;92261.38;5067980;28;20095;-73
2024/02/13 05:17:21;;;;;;;11.93;8.70;;;;;;;7.77;100.00;92261.47;5074854;28;20044;-73
2024/02/13 05:19:49;;;;;;;23.92;12.95;;;;;;;7.69;100.00;92265.88;5076778;28;20048;-73
2024/02/13 05:22:16;;;;;;;13.38;8.68;;;;;;;7.77;100.00;92269.16;5077864;28;20493;-73
2024/02/13 05:24:43;;;;;;;12.75;8.82;;;;;;;7.76;100.00;92276.03;5070930;28;20520;-73
2024/02/13 05:27:10;;;;;;;19.15;14.00;;;;;;;7.82;100.00;92279.50;5072045;28;20504;-73
2024/02/13 05:29:38;;;;;;;15.70;12.00;;;;;;;7.82;100.00;92282.84;5072778;28;20048;-73
2024/02/13 05:32:06;;;;;;;15.10;11.20;;;;;;;7.82;100.00;92287.94;5073883;28;20131;-73
2024/02/13 05:34:34;;;;;;;14.45;9.68;;;;;;;7.82;100.00;92292.28;5075401;28;20045;-74
2024/02/13 05:37:01;;;;;;;16.60;10.90;;;;;;;7.86;100.00;92289.06;5075237;28;20048;-74
2024/02/13 05:39:29;;;;;;;14.60;8.88;;;;;;;7.82;100.00;92282.84;5072628;28;20052;-74
2024/02/13 05:41:56;;;;;;;13.10;8.50;;;;;;;7.92;100.00;92300.22;5075692;28;20044;-73
2024/02/13 05:44:23;;;;;;;15.00;8.30;;;;;;;7.95;100.00;92302.34;5074220;28;20118;-73
2024/02/13 05:46:51;;;;;;;14.07;8.93;;;;;;;7.92;100.00;92305.31;5074182;28;20064;-74
2024/02/13 05:49:18;;;;;;;11.80;7.72;;;;;;;7.83;100.00;92311.75;5073268;28;20059;-73
2024/02/13 05:51:46;;;;;;;11.88;7.47;;;;;;;7.79;100.00;92308.84;5075618;28;20046;-73
2024/02/13 05:54:14;;;;;;;11.25;8.05;;;;;;;7.80;100.00;92318.06;5081582;28;20564;-73
2024/02/13 05:56:41;;;;;;;11.30;8.98;;;;;;;7.83;100.00;92317.63;5075730;28;20098;-73
2024/02/13 05:59:09;;;;;;;12.80;8.32;;;;;;;7.70;100.00;92318.56;5075909;28;20055;-73
2024/02/13 06:01:36;;;;;;;11.23;7.72;;;;;;;7.82;100.00;92321.19;5072869;28;20047;-73
2024/02/13 06:04:06;;;;;;;12.25;7.55;;;;;;;7.57;100.00;92318.69;5069582;28;20070;-73
2024/02/13 06:06:36;;;;;;;6.90;4.22;;;;;;;7.39;100.00;92310.03;5076580;28;20097;-74
2024/02/13 06:09:06;;;;;;;4.97;3.80;;;;;;;7.68;100.00;92335.88;5069276;28;20049;-73
2024/02/13 06:11:36;;;;;;;18.55;12.93;;;;;;;7.69;100.00;92341.78;5068327;28;20076;-73
2024/02/13 06:14:03;;;;;;;10.82;7.15;;;;;;;7.48;100.00;92347.09;5073451;28;20082;-73
2024/02/13 06:16:30;;;;;;;7.85;5.18;;;;;;;7.52;100.00;92342.34;5069244;28;20042;-73
2024/02/13 06:18:57;;;;;;;13.00;8.98;;;;;;;7.66;100.00;92350.66;5070164;28;20492;-73
2024/02/13 06:21:24;;;;;;;10.30;6.82;;;;;;;7.71;100.00;92352.56;5070463;28;20718;-73
2024/02/13 06:23:51;;;;;;;11.18;7.18;;;;;;;7.75;100.00;92348.59;5070604;28;20055;-73
2024/02/13 06:26:19;;;;;;;7.03;5.03;;;;;;;7.70;100.00;92351.81;5073463;28;20059;-74
2024/02/13 06:28:46;;;;;;;8.10;5.55;;;;;;;7.70;100.00;92348.47;5070361;28;20500;-74
2024/02/13 06:31:13;;;;;;;5.03;3.95;;;;;;;7.61;100.00;92355.63;5077964;28;20044;-74
2024/02/13 06:33:40;;;;;;;6.32;4.18;;;;;;;7.40;100.00;92362.69;5077615;28;20044;-74
2024/02/13 06:36:07;;;;;;;5.00;3.53;;;;;;;7.20;100.00;92357.75;5081223;28;20044;-74
2024/02/13 06:38:35;;;;;;;7.65;4.60;;;;;;;7.43;100.00;92367.41;5072292;28;20040;-74
2024/02/13 06:41:05;;;;;;;5.80;4.25;;;;;;;7.57;100.00;92359.59;5074110;28;20063;-74
2024/02/13 06:43:33;;;;;;;9.20;5.75;;;;;;;7.49;100.00;92353.78;5071797;28;20054;-74
2024/02/13 06:46:00;;;;;;;19.00;12.00;;;;;;;7.55;100.00;92364.91;5067620;28;20048;-74
2024/02/13 06:48:27;;;;;;;16.38;9.07;;;;;;;7.65;100.00;92367.00;5072718;28;20052;-74
2024/02/13 06:50:54;;;;;;;17.30;10.63;;;;;;;7.78;100.00;92367.84;5072255;28;20055;-74
2024/02/13 06:53:22;;;;;;;13.40;8.45;;;;;;;7.77;100.00;92372.16;5071958;28;20051;-74
2024/02/13 06:55:49;;;;;;;11.95;8.27;;;;;;;7.75;100.00;92364.72;5068719;28;20049;-74
2024/02/13 06:58:17;;;;;;;12.13;8.27;;;;;;;7.87;100.00;92366.56;5074459;28;20066;-74
2024/02/13 07:00:46;;;;;;;4.32;3.20;;;;;;;7.64;100.00;92364.66;5069154;28;20048;-73
2024/02/13 07:03:13;;;;;;;5.38;3.10;;;;;;;7.45;100.00;92370.50;5069672;28;20054;-73
2024/02/13 07:05:40;;;;;;;5.65;4.28;;;;;;;6.99;100.00;92362.25;5067972;28;20052;-74
2024/02/13 07:08:07;;;;;;;7.90;4.50;;;;;;;7.22;100.00;92359.13;5068939;28;20055;-74
2024/02/13 07:10:35;;;;;;;9.30;6.50;;;;;;;7.30;100.00;92365.75;5070518;28;20040;-74
2024/02/13 07:13:01;;;;;;;7.47;5.85;;;;;;;7.25;100.00;92352.03;5067749;28;20057;-74
2024/02/13 07:15:28;;;;;;;10.32;6.82;;;;;;;7.59;100.00;92370.41;5069301;28;20058;-74
2024/02/13 07:17:57;;;;;;;78.00;40.85;;;;;;;7.74;100.00;92364.94;5070183;28;20045;-74
2024/02/13 07:20:24;;;;;;;44.25;22.63;;;;;;;7.86;100.00;92367.56;5068422;28;20520;-74
2024/02/13 07:22:53;;;;;;;47.42;26.33;;;;;;;7.90;100.00;92348.25;5067625;28;20122;-74
2024/02/13 07:25:20;;;;;;;55.08;31.73;;;;;;;8.09;100.00;92366.91;5070655;28;20044;-74
2024/02/13 07:27:48;;;;;;;15.48;9.75;;;;;;;8.09;100.00;92371.22;5076675;28;20085;-74
2024/02/13 07:30:16;;;;;;;9.65;7.20;;;;;;;8.16;100.00;92366.84;5068427;28;20138;-74
2024/02/13 07:32:44;;;;;;;10.13;6.80;;;;;;;8.16;100.00;92365.03;5072592;28;20040;-74
2024/02/13 07:35:14;;;;;;;20.27;12.43;;;;;;;8.21;100.00;92372.09;5077329;28;20084;-74
2024/02/13 07:37:41;;;;;;;32.03;20.35;;;;;;;8.36;100.00;92364.03;5071601;28;20052;-74
2024/02/13 07:40:09;;;;;;;66.82;39.13;;;;;;;8.52;100.00;92360.09;5071678;28;20056;-74
2024/02/13 07:42:36;;;;;;;47.15;25.98;;;;;;;8.52;100.00;92349.88;5074840;28;20039;-74
2024/02/13 07:45:05;;;;;;;13.63;7.40;;;;;;;8.51;99.90;92362.84;5073274;28;20048;-74
2024/02/13 07:47:32;;;;;;;13.50;8.93;;;;;;;8.59;99.72;92365.13;5076121;28;20044;-74
2024/02/13 07:49:59;;;;;;;10.85;6.00;;;;;;;8.57;97.64;92356.13;5081868;28;20125;-74
2024/02/13 07:52:27;;;;;;;7.50;4.57;;;;;;;8.60;96.31;92369.25;5072777;28;20047;-73
2024/02/13 07:54:54;;;;;;;7.20;4.53;;;;;;;7.96;97.31;92378.06;5072405;28;20489;-73
2024/02/13 07:57:21;;;;;;;5.85;4.65;;;;;;;8.05;98.36;92377.78;5081409;28;20050;-73
2024/02/13 07:59:54;;;;;;;5.60;4.65;;;;;;;8.18;98.60;92376.88;5080626;28;20048;-73
2024/02/13 08:02:22;;;;;;;13.80;8.43;;;;;;;8.22;99.09;92377.97;5074820;28;20046;-73
2024/02/13 08:04:49;;;;;;;11.30;6.68;;;;;;;8.27;100.00;92367.88;5077381;28;20131;-73
2024/02/13 08:07:16;;;;;;;7.72;5.45;;;;;;;8.41;100.00;92376.16;5070953;28;20051;-73
2024/02/13 08:09:44;;;;;;;13.23;8.30;;;;;;;8.50;100.00;92371.53;5079504;28;20139;-73
2024/02/13 08:12:12;;;;;;;15.40;10.73;;;;;;;8.62;100.00;92385.19;5075442;28;20056;-74
2024/02/13 08:14:40;;;;;;;12.65;7.88;;;;;;;8.49;98.85;92375.88;5076941;28;20127;-74
2024/02/13 08:17:08;;;;;;;8.35;5.50;;;;;;;8.58;99.21;92385.81;5075164;28;20080;-74
2024/02/13 08:19:35;;;;;;;10.63;6.30;;;;;;;8.51;99.04;92379.00;5075648;28;20072;-73
2024/02/13 08:22:02;;;;;;;11.60;6.78;;;;;;;8.46;100.00;92388.34;5075024;28;20059;-73
2024/02/13 08:24:29;;;;;;;10.98;7.00;;;;;;;8.46;100.00;92385.78;5073634;28;21371;-74
2024/02/13 08:26:58;;;;;;;7.65;5.65;;;;;;;8.49;99.43;92386.13;5077442;28;20053;-74
2024/02/13 08:29:25;;;;;;;8.60;5.50;;;;;;;8.58;100.00;92389.19;5069838;28;20045;-74
2024/02/13 08:31:53;;;;;;;6.68;4.78;;;;;;;8.51;100.00;92396.91;5082711;28;20490;-74
2024/02/13 08:34:21;;;;;;;11.52;6.00;;;;;;;8.40;100.00;92395.09;5070535;28;20094;-73
2024/02/13 08:36:48;;;;;;;8.40;5.57;;;;;;;8.46;100.00;92391.66;5070611;28;20509;-74
2024/02/13 08:39:15;;;;;;;9.45;7.28;;;;;;;8.51;100.00;92396.91;5080613;28;20740;-74
2024/02/13 08:41:42;;;;;;;7.05;5.35;;;;;;;8.54;100.00;92390.59;5074353;28;20047;-73
2024/02/13 08:44:10;;;;;;;8.93;5.68;;;;;;;8.48;100.00;92394.00;5072515;28;20048;-73
2024/02/13 08:46:37;;;;;;;11.48;8.20;;;;;;;8.45;100.00;92389.31;5071411;28;20346;-73
2024/02/13 08:49:04;;;;;;;9.48;5.85;;;;;;;8.49;100.00;92395.56;5072298;28;20059;-73
2024/02/13 08:51:31;;;;;;;10.30;8.13;;;;;;;8.54;100.00;92395.72;5078926;28;20047;-73
2024/02/13 08:53:58;;;;;;;11.52;8.30;;;;;;;8.63;100.00;92396.19;5073361;28;20457;-74
2024/02/13 08:56:25;;;;;;;15.25;10.73;;;;;;;8.71;100.00;92397.69;5070246;28;20059;-74
2024/02/13 08:58:52;;;;;;;26.85;19.05;;;;;;;8.69;100.00;92385.09;5070500;28;20045;-73
2024/02/13 09:01:22;;;;;;;12.48;9.70;;;;;;;8.86;100.00;92407.50;5079367;28;20045;-74
2024/02/13 09:03:49;;;;;;;18.48;9.65;;;;;;;8.92;100.00;92402.31;5075854;28;20045;-74
2024/02/13 09:06:17;;;;;;;16.65;12.07;;;;;;;9.05;100.00;92403.09;5070060;28;20055;-73
2024/02/13 09:08:44;;;;;;;16.10;11.35;;;;;;;9.08;100.00;92395.75;5070040;28;20047;-74
2024/02/13 09:11:13;;;;;;;14.15;8.52;;;;;;;9.20;100.00;92400.13;5073975;28;20047;-73
2024/02/13 09:13:40;;;;;;;13.50;9.75;;;;;;;9.19;100.00;92390.88;5069941;28;20045;-73
2024/02/13 09:16:08;;;;;;;10.38;6.78;;;;;;;9.21;99.21;92397.34;5068478;28;20079;-73
2024/02/13 09:18:38;;;;;;;11.20;5.88;;;;;;;9.32;96.25;92412.97;5072484;28;20519;-73
2024/02/13 09:21:06;;;;;;;7.22;5.07;;;;;;;9.28;93.61;92407.50;5069376;28;20147;-73
2024/02/13 09:23:34;;;;;;;10.73;6.63;;;;;;;9.26;95.51;92409.47;5071862;28;20993;-73
2024/02/13 09:26:01;;;;;;;16.02;10.90;;;;;;;9.32;98.63;92412.97;5070103;28;20504;-73
2024/02/13 09:28:28;;;;;;;12.88;8.55;;;;;;;9.10;98.19;92403.22;5069793;28;20056;-73
2024/02/13 09:30:55;;;;;;;11.65;7.00;;;;;;;9.19;97.21;92419.84;5071308;28;20049;-73
2024/02/13 09:33:22;;;;;;;12.27;9.07;;;;;;;9.13;96.49;92415.59;5068534;28;20052;-74
2024/02/13 09:35:51;;;;;;;9.35;4.90;;;;;;;8.44;96.38;92416.69;5071436;28;20505;-73
2024/02/13 09:38:19;;;;;;;5.53;2.95;;;;;;;8.14;94.72;92419.97;5068919;28;20079;-74
2024/02/13 09:40:47;;;;;;;4.40;2.67;;;;;;;7.95;97.67;92421.75;5070303;28;20049;-73
2024/02/13 09:43:14;;;;;;;4.57;2.70;;;;;;;7.92;98.90;92422.19;5071551;28;20729;-73
2024/02/13 09:45:43;;;;;;;5.35;3.72;;;;;;;7.39;100.00;92416.56;5072094;28;20047;-73
2024/02/13 09:48:18;;;;;;;2.88;1.98;;;;;;;7.58;100.00;92404.59;5069752;28;20554;-73
2024/02/13 09:50:46;;;;;;;;;;;;;;;7.86;100.00;92411.81;5070199;28;20048;-73
2024/02/13 09:53:19;;;;;;;2.75;2.13;;;;;;;7.62;100.00;92410.84;5070067;28;20555;-73
2024/02/13 09:55:47;;;;;;;2.90;2.40;;;;;;;7.40;100.00;92408.69;5069153;28;20067;-73
2024/02/13 09:58:15;;;;;;;2.42;1.98;;;;;;;7.31;100.00;92408.16;5068300;28;20052;-73
2024/02/13 10:00:43;;;;;;;4.25;2.70;;;;;;;7.66;100.00;92411.22;5070155;28;20056;-73
2024/02/13 10:03:11;;;;;;;4.07;2.75;;;;;;;7.78;100.00;92406.19;5071002;28;20047;-73
2024/02/13 10:05:39;;;;;;;4.20;2.40;;;;;;;8.07;99.91;92401.38;5072940;28;20072;-73
2024/02/13 10:08:07;;;;;;;8.75;5.60;;;;;;;8.25;100.00;92392.91;5071657;28;20048;-73
2024/02/13 10:10:37;;;;;;;9.30;5.30;;;;;;;8.39;98.32;92401.97;5073182;28;20043;-72
2024/02/13 10:13:05;;;;;;;7.40;5.00;;;;;;;8.58;98.11;92401.19;5081459;28;20488;-73
2024/02/13 10:15:40;;;;;;;11.65;6.78;;;;;;;8.72;97.19;92397.47;5069277;28;20068;-73
2024/02/13 10:18:11;;;;;;;9.50;5.60;;;;;;;8.90;97.80;92385.59;5068529;28;20048;-73
2024/02/13 10:20:38;;;;;;;10.68;5.07;;;;;;;9.06;96.00;92399.53;5073436;28;20640;-73
2024/02/13 10:23:05;;;;;;;7.95;3.75;;;;;;;9.05;92.83;92392.84;5068222;28;20401;-73
2024/02/13 10:25:33;;;;;;;6.80;4.63;;;;;;;9.03;91.92;92379.50;5068835;28;20071;-73
2024/02/13 10:28:02;;;;;;;6.68;4.05;;;;;;;9.20;92.55;92388.09;5070467;28;20110;-73
2024/02/13 10:30:31;;;;;;;16.40;7.00;;;;;;;9.16;91.66;92386.22;5071505;28;20036;-73
2024/02/13 10:33:00;;;;;;;11.77;7.50;;;;;;;9.19;91.45;92372.94;5071193;28;20771;-73
2024/02/13 10:35:29;;;;;;;10.43;6.97;;;;;;;9.21;91.26;92383.72;5071166;28;20043;-73
2024/02/13 10:37:56;;;;;;;6.80;3.97;;;;;;;8.74;91.31;92369.09;5067027;28;20151;-73
2024/02/13 10:40:26;;;;;;;4.75;3.33;;;;;;;8.94;90.90;92381.59;5068379;28;20040;-73
2024/02/13 10:42:54;;;;;;;4.28;2.78;;;;;;;9.04;89.06;92384.41;5069417;28;20053;-73
2024/02/13 10:45:25;;;;;;;10.82;5.35;;;;;;;9.21;91.72;92370.94;5081681;28;20678;-73
2024/02/13 10:47:54;;;;;;;13.25;7.68;;;;;;;9.26;91.12;92371.03;5072035;28;20511;-73
2024/02/13 10:50:22;;;;;;;7.03;4.30;;;;;;;9.16;89.28;92361.34;5070881;28;20041;-72
2024/02/13 10:52:52;;;;;;;4.78;3.13;;;;;;;9.01;88.19;92377.16;5078708;28;20048;-73
2024/02/13 10:55:20;;;;;;;3.33;2.72;;;;;;;9.03;88.05;92382.06;5067961;28;20135;-73
2024/02/13 10:57:49;;;;;;;4.15;2.58;;;;;;;8.22;86.41;92289.22;5067340;28;20591;-73
2024/02/13 11:00:19;;;;;;;4.32;2.90;;;;;;;8.78;88.09;92376.09;5069541;28;20879;-73
2024/02/13 11:02:51;;;;;;;7.30;3.60;;;;;;;8.77;90.09;92374.53;5067255;28;20157;-73
2024/02/13 11:05:19;;;;;;;8.10;4.10;;;;;;;9.04;92.59;92371.59;5068471;28;20147;-73
2024/02/13 11:07:47;;;;;;;7.15;3.90;;;;;;;9.15;93.54;92374.38;5072082;28;20040;-73
2024/02/13 11:10:14;;;;;;;14.48;7.68;;;;;;;9.22;91.76;92369.94;5071351;28;20353;-73
2024/02/13 11:12:44;;;;;;;11.55;5.40;;;;;;;8.89;92.93;92369.44;5079563;28;20047;-73
2024/02/13 11:15:15;;;;;;;8.13;5.00;;;;;;;9.11;93.12;92371.47;5072177;28;20102;-73
2024/02/13 11:17:54;;;;;;;15.15;7.35;;;;;;;8.81;92.40;92365.41;5073787;28;20051;-73
2024/02/13 11:20:24;;;;;;;9.73;5.55;;;;;;;8.31;96.42;92361.34;5072816;28;20044;-73
2024/02/13 11:22:51;;;;;;;7.30;3.80;;;;;;;8.54;94.70;92362.44;5070953;28;20048;-73
2024/02/13 11:25:18;;;;;;;11.02;7.03;;;;;;;8.48;96.47;92358.16;5070990;28;20131;-73
2024/02/13 11:27:48;;;;;;;8.35;5.72;;;;;;;8.65;97.46;92371.94;5071967;28;20053;-73
2024/02/13 11:30:24;;;;;;;10.32;4.55;;;;;;;8.23;97.10;92308.69;5074978;28;20048;-73
2024/02/13 11:32:58;;;;;;;9.80;5.65;;;;;;;8.79;100.00;92358.94;5073282;28;20055;-73